Dixie Raider — WDC2675 — position and weather

sailwx.info

Track history (hours):
 
Tides and Currents Weather Stations Pressure Air Temp Water Temp Dewpoint Dewpoint Depression Visibility Wind Speed Wind Dir Waves Ship Positions

Dixie Raider

Owner: Kirby Inland Marine LP, Houston, TX. More information available from US FCC via Universal Licensing System and Coast Guard Vessel Documentation Center.

Last reported at 2018-Jun-23 03:41 UTC. Time now 2018-Jun-25 17:36 UTC.
Position N 29°46' W 095°07'.

Length 99 m; draft 2.8 m.

Type: . MMSI: 366996280.

Date/timePositionNaut miles runAvg speedWind from/ knotsBaromVisibWave heightAir tempDewpointWater temp
2018-Jun-23 03:41N 29°46' W 095°07'0 1.7
2018-Jun-23 03:30N 29°46' W 095°07'1 1.4
2018-Jun-23 02:56N 29°46' W 095°06'7 2.0
2018-Jun-22 23:37N 29°42' W 094°59'2 5.7
2018-Jun-22 23:20N 29°40' W 094°59'2 6.3
2018-Jun-22 22:57N 29°38' W 094°58'17 6.2
2018-Jun-22 20:07N 29°23' W 094°48'2 6.1
2018-Jun-22 19:51N 29°21' W 094°49'2 6.4
2018-Jun-22 19:30N 29°20' W 094°51'3 6.1
2018-Jun-22 18:59N 29°17' W 094°53'3 5.9
2018-Jun-22 18:30N 29°17' W 094°57'3 5.4
2018-Jun-22 18:00N 29°16' W 094°60'3 5.4
2018-Jun-22 17:30N 29°14' W 095°02'3 5.2
2018-Jun-22 17:00N 29°12' W 095°04'3 5.6
2018-Jun-22 16:30N 29°10' W 095°06'3 5.5
2018-Jun-22 16:00N 29°09' W 095°09'3 5.7
2018-Jun-22 15:30N 29°07' W 095°11'3 5.5
2018-Jun-22 15:00N 29°05' W 095°13'3 5.5
2018-Jun-22 14:30N 29°02' W 095°14'8 5.0
2018-Jun-22 12:56N 28°56' W 095°20'1 1.4
2018-Jun-22 12:24N 28°57' W 095°20'0 0.0
2018-Jun-22 11:50N 28°57' W 095°20'0 0.3
2018-Jun-22 10:50N 28°57' W 095°20'1 0.0
2018-Jun-21 19:10N 28°56' W 095°20'0 1.3
2018-Jun-21 19:00N 28°56' W 095°20'0 0.4
2018-Jun-21 18:27N 28°56' W 095°20'1 1.2
2018-Jun-21 17:53N 28°57' W 095°19'3 4.5
2018-Jun-21 17:12N 28°59' W 095°17'4 4.1
2018-Jun-21 16:20N 29°01' W 095°14'1 3.5
2018-Jun-21 15:57N 29°03' W 095°13'2 4.2
2018-Jun-21 15:31N 29°04' W 095°13'2 4.2
2018-Jun-21 15:00N 29°06' W 095°12'1 2.0
2018-Jun-21 14:30N 29°07' W 095°11'2 3.6
2018-Jun-21 14:01N 29°09' W 095°10'2 4.4
2018-Jun-21 13:30N 29°10' W 095°08'2 4.4
2018-Jun-21 13:00N 29°11' W 095°05'2 4.5
2018-Jun-21 12:30N 29°12' W 095°03'2 3.3
2018-Jun-21 12:00N 29°13' W 095°02'0 0.1
2018-Jun-21 11:30N 29°13' W 095°02'0 0.1
2018-Jun-21 11:01N 29°13' W 095°02'0 0.0
2018-Jun-21 10:30N 29°13' W 095°02'0 0.0
2018-Jun-21 10:00N 29°13' W 095°02'0 0.0
2018-Jun-21 09:30N 29°13' W 095°02'1 2.4
2018-Jun-21 09:00N 29°14' W 095°01'2 4.0
2018-Jun-21 08:30N 29°16' W 094°60'2 4.0
2018-Jun-21 08:00N 29°17' W 094°58'2 4.1
2018-Jun-21 07:30N 29°17' W 094°55'2 3.8
2018-Jun-21 07:01N 29°18' W 094°53'6 4.2
2018-Jun-21 05:38N 29°22' W 094°48'0 2.1
2018-Jun-21 05:29N 29°22' W 094°49'2 5.1
2018-Jun-21 05:01N 29°22' W 094°51'2 3.6
2018-Jun-21 04:31N 29°22' W 094°53'0 0.1
2018-Jun-21 03:56N 29°22' W 094°53'0 0.0
2018-Jun-21 02:29N 29°22' W 094°53'0 0.0
2018-Jun-21 01:50N 29°22' W 094°53'0 0.0
2018-Jun-21 01:29N 29°22' W 094°53'0 0.0
2018-Jun-21 00:53N 29°22' W 094°53'0 0.0
2018-Jun-21 00:29N 29°22' W 094°53'0 0.0
2018-Jun-20 19:37N 29°22' W 094°53'0 0.0
2018-Jun-20 19:29N 29°22' W 094°53'1 1.9
2018-Jun-20 19:00N 29°23' W 094°53'3 4.8
2018-Jun-20 18:19N 29°22' W 094°49'1 3.0
2018-Jun-20 18:00N 29°22' W 094°48'2 3.2
2018-Jun-20 17:28N 29°24' W 094°49'16 4.9
2018-Jun-20 14:05N 29°38' W 094°58'1 5.3
2018-Jun-20 13:57N 29°39' W 094°58'3 5.5
2018-Jun-20 13:27N 29°41' W 094°59'2 0.2
2018-Jun-20 04:18N 29°42' W 095°01'3 5.8
2018-Jun-20 03:44N 29°40' W 094°58'3 5.4
2018-Jun-20 03:12N 29°37' W 094°58'1 6.1
2018-Jun-20 03:00N 29°37' W 094°59'2 1.3
2018-Jun-20 01:34N 29°37' W 095°02'0 0.0
2018-Jun-20 01:25N 29°37' W 095°02'0 0.0
2018-Jun-19 16:04N 29°37' W 095°01'0 0.0
2018-Jun-19 15:55N 29°37' W 095°01'0 0.9
2018-Jun-19 15:30N 29°37' W 095°01'3 4.9
2018-Jun-19 14:51N 29°38' W 094°58'3 6.6
2018-Jun-19 14:28N 29°41' W 094°59'  
2018-Jun-14 04:04N 29°47' W 095°04'0 0.0
2018-Jun-13 04:14N 29°47' W 095°04'0 0.0
2018-Jun-13 04:00N 29°47' W 095°04'  
Track history (hours):
 
Tides and Currents Weather Stations Pressure Air Temp Water Temp Dewpoint Dewpoint Depression Visibility Wind Speed Wind Dir Waves Ship Positions

Dixie Raider

Owner: Kirby Inland Marine LP, Houston, TX. More information available from US FCC via Universal Licensing System and Coast Guard Vessel Documentation Center.

Last reported at 2018-Jun-23 03:41 UTC. Time now 2018-Jun-25 17:36 UTC.
Position N 29°46' W 095°07'.

Length 99 m; draft 2.8 m.

Type: . MMSI: 366996280.

Date/timePositionNaut miles runAvg speedWind from/ knotsBaromVisibWave heightAir tempDewpointWater temp
2018-Jun-23 03:41N 29°46' W 095°07'0 1.7
2018-Jun-23 03:30N 29°46' W 095°07'1 1.4
2018-Jun-23 02:56N 29°46' W 095°06'7 2.0
2018-Jun-22 23:37N 29°42' W 094°59'2 5.7
2018-Jun-22 23:20N 29°40' W 094°59'2 6.3
2018-Jun-22 22:57N 29°38' W 094°58'17 6.2
2018-Jun-22 20:07N 29°23' W 094°48'2 6.1
2018-Jun-22 19:51N 29°21' W 094°49'2 6.4
2018-Jun-22 19:30N 29°20' W 094°51'3 6.1
2018-Jun-22 18:59N 29°17' W 094°53'3 5.9
2018-Jun-22 18:30N 29°17' W 094°57'3 5.4
2018-Jun-22 18:00N 29°16' W 094°60'3 5.4
2018-Jun-22 17:30N 29°14' W 095°02'3 5.2
2018-Jun-22 17:00N 29°12' W 095°04'3 5.6
2018-Jun-22 16:30N 29°10' W 095°06'3 5.5
2018-Jun-22 16:00N 29°09' W 095°09'3 5.7
2018-Jun-22 15:30N 29°07' W 095°11'3 5.5
2018-Jun-22 15:00N 29°05' W 095°13'3 5.5
2018-Jun-22 14:30N 29°02' W 095°14'8 5.0
2018-Jun-22 12:56N 28°56' W 095°20'1 1.4
2018-Jun-22 12:24N 28°57' W 095°20'0 0.0
2018-Jun-22 11:50N 28°57' W 095°20'0 0.3
2018-Jun-22 10:50N 28°57' W 095°20'1 0.0
2018-Jun-21 19:10N 28°56' W 095°20'0 1.3
2018-Jun-21 19:00N 28°56' W 095°20'0 0.4
2018-Jun-21 18:27N 28°56' W 095°20'1 1.2
2018-Jun-21 17:53N 28°57' W 095°19'3 4.5
2018-Jun-21 17:12N 28°59' W 095°17'4 4.1
2018-Jun-21 16:20N 29°01' W 095°14'1 3.5
2018-Jun-21 15:57N 29°03' W 095°13'2 4.2
2018-Jun-21 15:31N 29°04' W 095°13'2 4.2
2018-Jun-21 15:00N 29°06' W 095°12'1 2.0
2018-Jun-21 14:30N 29°07' W 095°11'2 3.6
2018-Jun-21 14:01N 29°09' W 095°10'2 4.4
2018-Jun-21 13:30N 29°10' W 095°08'2 4.4
2018-Jun-21 13:00N 29°11' W 095°05'2 4.5
2018-Jun-21 12:30N 29°12' W 095°03'2 3.3
2018-Jun-21 12:00N 29°13' W 095°02'0 0.1
2018-Jun-21 11:30N 29°13' W 095°02'0 0.1
2018-Jun-21 11:01N 29°13' W 095°02'0 0.0
2018-Jun-21 10:30N 29°13' W 095°02'0 0.0
2018-Jun-21 10:00N 29°13' W 095°02'0 0.0
2018-Jun-21 09:30N 29°13' W 095°02'1 2.4
2018-Jun-21 09:00N 29°14' W 095°01'2 4.0
2018-Jun-21 08:30N 29°16' W 094°60'2 4.0
2018-Jun-21 08:00N 29°17' W 094°58'2 4.1
2018-Jun-21 07:30N 29°17' W 094°55'2 3.8
2018-Jun-21 07:01N 29°18' W 094°53'6 4.2
2018-Jun-21 05:38N 29°22' W 094°48'0 2.1
2018-Jun-21 05:29N 29°22' W 094°49'2 5.1
2018-Jun-21 05:01N 29°22' W 094°51'2 3.6
2018-Jun-21 04:31N 29°22' W 094°53'0 0.1
2018-Jun-21 03:56N 29°22' W 094°53'0 0.0
2018-Jun-21 02:29N 29°22' W 094°53'0 0.0
2018-Jun-21 01:50N 29°22' W 094°53'0 0.0
2018-Jun-21 01:29N 29°22' W 094°53'0 0.0
2018-Jun-21 00:53N 29°22' W 094°53'0 0.0
2018-Jun-21 00:29N 29°22' W 094°53'0 0.0
2018-Jun-20 19:37N 29°22' W 094°53'0 0.0
2018-Jun-20 19:29N 29°22' W 094°53'1 1.9
2018-Jun-20 19:00N 29°23' W 094°53'3 4.8
2018-Jun-20 18:19N 29°22' W 094°49'1 3.0
2018-Jun-20 18:00N 29°22' W 094°48'2 3.2
2018-Jun-20 17:28N 29°24' W 094°49'16 4.9
2018-Jun-20 14:05N 29°38' W 094°58'1 5.3
2018-Jun-20 13:57N 29°39' W 094°58'3 5.5
2018-Jun-20 13:27N 29°41' W 094°59'2 0.2
2018-Jun-20 04:18N 29°42' W 095°01'3 5.8
2018-Jun-20 03:44N 29°40' W 094°58'3 5.4
2018-Jun-20 03:12N 29°37' W 094°58'1 6.1
2018-Jun-20 03:00N 29°37' W 094°59'2 1.3
2018-Jun-20 01:34N 29°37' W 095°02'0 0.0
2018-Jun-20 01:25N 29°37' W 095°02'0 0.0
2018-Jun-19 16:04N 29°37' W 095°01'0 0.0
2018-Jun-19 15:55N 29°37' W 095°01'0 0.9
2018-Jun-19 15:30N 29°37' W 095°01'3 4.9
2018-Jun-19 14:51N 29°38' W 094°58'3 6.6
2018-Jun-19 14:28N 29°41' W 094°59'  
2018-Jun-14 04:04N 29°47' W 095°04'0 0.0
2018-Jun-13 04:14N 29°47' W 095°04'0 0.0
2018-Jun-13 04:00N 29°47' W 095°04'  

Dump ship's entire track history